Time;durP1;ratioP1;P1;durP2;ratioP2;P2;SDS_P1;SDS_P2;PMS_P1;PMS_P2;Temp;Humidity;BMP_temperature;BMP_pressure;BME280_temperature;BME280_humidity;BME280_pressure;Samples;Min_cycle;Max_cycle;Signal;HPM_P1;HPM_P2
2023/01/09 00:00:59;;;;;;;;;;;5.70;99.90;;;;;;5040425;28;1650;-75
2023/01/09 00:03:26;;;;;;;;;;;5.60;99.90;;;;;;5045698;28;1332;-76
2023/01/09 00:05:55;;;;;;;;;;;5.60;99.90;;;;;;5044779;28;1039;-77
2023/01/09 00:08:23;;;;;;;;;;;5.60;99.90;;;;;;5043340;28;1906;-77
2023/01/09 00:10:50;;;;;;;;;;;5.60;99.90;;;;;;5045031;28;1045;-77
2023/01/09 00:13:18;;;;;;;;;;;5.60;99.90;;;;;;5043849;28;1090;-77
2023/01/09 00:15:47;;;;;;;;;;;5.50;99.90;;;;;;5050060;28;1227;-76
2023/01/09 00:18:15;;;;;;;;;;;5.50;99.90;;;;;;5040914;28;1171;-76
2023/01/09 00:20:42;;;;;;;;;;;5.50;99.90;;;;;;5051545;28;1044;-76
2023/01/09 00:23:11;;;;;;;;;;;5.60;99.90;;;;;;5040292;28;981;-76
2023/01/09 00:25:39;;;;;;;;;;;5.50;99.90;;;;;;5039954;28;1634;-75
2023/01/09 00:28:09;;;;;;;;;;;5.60;99.90;;;;;;5041066;28;1997;-76
2023/01/09 00:30:36;;;;;;;;;;;5.60;99.90;;;;;;5043839;28;1156;-75
2023/01/09 00:33:04;;;;;;;;;;;5.60;99.90;;;;;;5049953;28;1682;-75
2023/01/09 00:35:32;;;;;;;;;;;5.60;99.90;;;;;;5043459;28;1665;-75
2023/01/09 00:37:59;;;;;;;;;;;5.60;99.90;;;;;;5046365;28;1300;-76
2023/01/09 00:40:28;;;;;;;;;;;5.60;99.90;;;;;;5045674;28;1109;-75
2023/01/09 00:42:56;;;;;;;;;;;5.60;99.90;;;;;;5043154;28;1021;-75
2023/01/09 00:45:27;;;;;;;;;;;5.60;99.90;;;;;;5043204;28;1302;-76
2023/01/09 00:47:57;;;;;;;;;;;5.70;99.90;;;;;;5043201;28;1124;-76
2023/01/09 00:50:26;;;;;;;;;;;5.70;99.90;;;;;;5045772;28;1903;-76
2023/01/09 00:52:55;;;;;;;;;;;5.80;99.90;;;;;;5044794;28;1438;-76
2023/01/09 00:55:23;;;;;;;;;;;5.90;99.90;;;;;;5041978;28;1297;-76
2023/01/09 00:57:51;;;;;;;;;;;6.00;99.90;;;;;;5040656;28;1096;-76
2023/01/09 01:00:19;;;;;;;;;;;6.00;99.90;;;;;;5040897;28;974;-76
2023/01/09 01:02:47;;;;;;;;;;;5.90;99.90;;;;;;5047063;28;995;-76
2023/01/09 01:07:59;;;;;;;;;;;5.80;99.90;;;;;;5044900;28;1340;-76
2023/01/09 01:10:27;;;;;;;;;;;5.80;99.90;;;;;;5044028;28;1984;-76
2023/01/09 01:12:56;;;;;;;;;;;5.80;99.90;;;;;;5054603;28;1068;-77
2023/01/09 01:15:28;;;;;;;;;;;5.80;99.90;;;;;;5053456;28;1334;-76
2023/01/09 01:17:55;;;;;;;;;;;5.70;99.90;;;;;;5047275;28;1172;-76
2023/01/09 01:20:23;;;;;;;;;;;5.70;99.90;;;;;;5048185;28;1024;-75
2023/01/09 01:22:51;;;;;;;;;;;5.80;99.90;;;;;;5044575;28;1096;-76
2023/01/09 01:25:18;;;;;;;;;;;5.90;99.90;;;;;;5051444;28;1492;-76
2023/01/09 01:27:46;;;;;;;;;;;5.90;99.90;;;;;;5045986;28;1714;-76
2023/01/09 01:30:17;;;;;;;;;;;5.80;99.90;;;;;;5047646;28;1999;-75
2023/01/09 01:32:44;;;;;;;;;;;5.80;99.90;;;;;;5042646;28;1511;-76
2023/01/09 01:35:12;;;;;;;;;;;5.90;99.90;;;;;;5045970;28;1373;-76
2023/01/09 01:37:40;;;;;;;;;;;5.90;99.90;;;;;;5044669;28;1041;-76
2023/01/09 01:40:08;;;;;;;;;;;5.80;99.90;;;;;;5041584;28;1094;-76
2023/01/09 01:42:36;;;;;;;;;;;5.80;99.90;;;;;;5043448;28;1857;-76
2023/01/09 01:45:06;;;;;;;;;;;5.80;99.90;;;;;;5038686;28;1374;-75
2023/01/09 01:47:44;;;;;;;;;;;5.80;99.90;;;;;;5043457;28;1303;-77
2023/01/09 01:50:15;;;;;;;;;;;5.80;99.90;;;;;;5042170;28;1914;-77
2023/01/09 01:52:45;;;;;;;;;;;5.80;99.90;;;;;;5049812;28;1499;-77
2023/01/09 01:55:12;;;;;;;;;;;5.80;99.90;;;;;;5050740;28;1366;-76
2023/01/09 01:57:43;;;;;;;;;;;5.80;99.90;;;;;;5049586;28;1543;-75
2023/01/09 02:00:11;;;;;;;;;;;5.80;99.90;;;;;;5048821;28;1085;-78
2023/01/09 02:02:39;;;;;;;;;;;5.90;99.90;;;;;;5046821;28;1843;-77
2023/01/09 02:05:09;;;;;;;;;;;6.00;99.90;;;;;;5044679;28;1267;-75
2023/01/09 02:07:36;;;;;;;;;;;6.10;99.90;;;;;;5046927;28;1132;-74
2023/01/09 02:10:04;;;;;;;;;;;6.10;99.90;;;;;;5046095;28;1906;-76
2023/01/09 02:12:32;;;;;;;;;;;6.10;99.90;;;;;;5050030;28;1552;-76
2023/01/09 02:15:07;;;;;;;;;;;6.10;99.90;;;;;;5051701;28;1237;-76
2023/01/09 02:17:42;;;;;;;;;;;6.20;99.90;;;;;;5055814;28;1005;-78
2023/01/09 02:20:29;;;;;;;;;;;6.30;99.90;;;;;;5060351;28;1163;-76
2023/01/09 02:23:03;;;;;;;;;;;6.30;99.90;;;;;;5052668;28;1097;-76
2023/01/09 02:25:48;;;;;;;;;;;6.40;99.90;;;;;;5065217;28;1568;-76
2023/01/09 02:28:28;;;;;;;;;;;6.40;99.90;;;;;;5062115;28;1080;-76
2023/01/09 02:30:59;;;;;;;;;;;6.40;99.90;;;;;;5060427;28;1977;-76
2023/01/09 02:33:35;;;;;;;;;;;6.50;99.90;;;;;;5054394;28;1338;-76
2023/01/09 02:36:11;;;;;;;;;;;6.50;99.90;;;;;;5061475;28;1108;-76
2023/01/09 02:38:45;;;;;;;;;;;6.50;99.90;;;;;;5063608;28;1164;-78
2023/01/09 02:41:15;;;;;;;;;;;6.60;99.90;;;;;;5061817;28;1137;-77
2023/01/09 02:43:43;;;;;;;;;;;6.60;99.90;;;;;;5069230;28;1400;-78
2023/01/09 02:46:18;;;;;;;;;;;6.70;99.90;;;;;;5059157;28;1080;-77
2023/01/09 02:48:46;;;;;;;;;;;6.70;99.90;;;;;;5062941;28;1073;-76
2023/01/09 02:51:18;;;;;;;;;;;6.80;99.90;;;;;;5065480;28;1898;-76
2023/01/09 02:53:55;;;;;;;;;;;6.70;99.90;;;;;;5064092;28;1354;-77
2023/01/09 02:56:31;;;;;;;;;;;6.70;99.90;;;;;;5062095;28;1061;-77
2023/01/09 02:59:08;;;;;;;;;;;6.70;99.90;;;;;;5052612;28;1095;-75
2023/01/09 03:01:43;;;;;;;;;;;6.80;99.90;;;;;;5054945;28;1220;-75
2023/01/09 03:04:16;;;;;;;;;;;6.90;99.90;;;;;;5063025;28;1429;-75
2023/01/09 03:06:47;;;;;;;;;;;6.90;99.90;;;;;;5055186;28;1037;-74
2023/01/09 03:09:16;;;;;;;;;;;6.90;99.90;;;;;;5056819;28;1028;-75
2023/01/09 03:11:46;;;;;;;;;;;6.90;99.90;;;;;;5050252;28;1891;-75
2023/01/09 03:14:23;;;;;;;;;;;6.90;99.90;;;;;;5055671;28;1454;-77
2023/01/09 03:16:55;;;;;;;;;;;7.00;99.90;;;;;;5054552;28;1128;-78
2023/01/09 03:19:26;;;;;;;;;;;7.00;99.90;;;;;;5054928;28;1096;-77
2023/01/09 03:21:55;;;;;;;;;;;7.00;99.90;;;;;;5056780;28;1120;-77
2023/01/09 03:24:22;;;;;;;;;;;7.00;99.90;;;;;;5056598;28;1515;-76
2023/01/09 03:26:50;;;;;;;;;;;7.10;99.90;;;;;;5057565;28;1029;-76
2023/01/09 03:29:23;;;;;;;;;;;7.10;99.90;;;;;;5045957;28;1174;-75
2023/01/09 03:31:50;;;;;;;;;;;7.20;99.90;;;;;;5050349;28;1906;-74
2023/01/09 03:34:18;;;;;;;;;;;7.10;99.90;;;;;;5047534;28;1630;-76
2023/01/09 03:36:47;;;;;;;;;;;7.20;99.90;;;;;;5038173;28;1476;-74
2023/01/09 03:39:15;;;;;;;;;;;7.20;99.90;;;;;;5044292;28;1927;-77
2023/01/09 03:41:43;;;;;;;;;;;7.20;99.90;;;;;;5045936;28;1028;-77
2023/01/09 03:44:10;;;;;;;;;;;7.20;99.90;;;;;;5051311;28;1426;-75
2023/01/09 03:46:50;;;;;;;;;;;7.30;99.90;;;;;;5049859;28;1065;-76
2023/01/09 03:49:18;;;;;;;;;;;7.30;99.90;;;;;;5061902;28;1096;-76
2023/01/09 03:51:51;;;;;;;;;;;7.40;99.90;;;;;;5053106;28;1965;-77
2023/01/09 03:54:18;;;;;;;;;;;7.30;99.90;;;;;;5043754;28;1659;-76
2023/01/09 03:56:53;;;;;;;;;;;7.40;99.90;;;;;;5047052;28;1256;-76
2023/01/09 03:59:21;;;;;;;;;;;7.50;99.90;;;;;;5045945;28;1029;-76
2023/01/09 04:01:48;;;;;;;;;;;7.50;99.90;;;;;;5049304;28;1064;-77
2023/01/09 04:04:17;;;;;;;;;;;7.40;99.90;;;;;;5042447;28;1258;-77
2023/01/09 04:06:45;;;;;;;;;;;7.40;99.90;;;;;;5047772;28;1113;-77
2023/01/09 04:09:14;;;;;;;;;;;7.40;99.90;;;;;;5046778;28;1013;-76
2023/01/09 04:11:41;;;;;;;;;;;7.60;99.90;;;;;;5050892;28;1890;-77
2023/01/09 04:14:09;;;;;;;;;;;7.40;99.90;;;;;;5047630;28;1516;-76
2023/01/09 04:16:36;;;;;;;;;;;7.40;99.90;;;;;;5041575;28;1229;-75
2023/01/09 04:19:04;;;;;;;;;;;7.40;99.90;;;;;;5044060;28;1009;-76
2023/01/09 04:21:32;;;;;;;;;;;7.50;99.90;;;;;;5044987;28;1013;-76
2023/01/09 04:23:59;;;;;;;;;;;7.50;99.90;;;;;;5044495;28;1292;-77
2023/01/09 04:26:28;;;;;;;;;;;7.50;99.90;;;;;;5044130;28;1688;-75
2023/01/09 04:28:56;;;;;;;;;;;7.50;99.90;;;;;;5041080;28;1082;-76
2023/01/09 04:31:25;;;;;;;;;;;7.50;99.90;;;;;;5051149;28;2014;-75
2023/01/09 04:33:52;;;;;;;;;;;7.50;99.90;;;;;;5044140;28;1367;-76
2023/01/09 04:36:20;;;;;;;;;;;7.40;99.90;;;;;;5043136;28;1523;-76
2023/01/09 04:38:48;;;;;;;;;;;7.50;99.90;;;;;;5045573;28;1075;-75
2023/01/09 04:41:47;;;;;;;;;;;7.50;99.90;;;;;;5043974;28;1025;-76
2023/01/09 04:44:05;;;;;;;;;;;7.40;99.90;;;;;;5047760;28;1259;-79
2023/01/09 04:46:32;;;;;;;;;;;7.60;99.90;;;;;;5048135;28;1600;-77
2023/01/09 04:49:00;;;;;;;;;;;7.60;99.90;;;;;;5049959;28;1279;-77
2023/01/09 04:51:27;;;;;;;;;;;7.50;99.90;;;;;;5051917;28;1991;-77
2023/01/09 04:53:55;;;;;;;;;;;7.50;99.90;;;;;;5043868;28;1287;-76
2023/01/09 04:56:24;;;;;;;;;;;7.50;99.90;;;;;;5040216;28;1660;-76
2023/01/09 04:58:51;;;;;;;;;;;7.60;99.90;;;;;;5044120;28;1090;-75
2023/01/09 05:01:21;;;;;;;;;;;7.50;99.90;;;;;;5046809;28;1026;-75
2023/01/09 05:03:49;;;;;;;;;;;7.50;99.90;;;;;;5045190;28;1436;-76
2023/01/09 05:06:17;;;;;;;;;;;7.40;99.90;;;;;;5042381;28;1085;-74
2023/01/09 05:08:46;;;;;;;;;;;7.30;99.90;;;;;;5043385;28;1624;-75
2023/01/09 05:11:14;;;;;;;;;;;7.30;99.90;;;;;;5047753;28;1918;-75
2023/01/09 05:13:48;;;;;;;;;;;7.30;99.90;;;;;;5046990;28;1314;-75
2023/01/09 05:16:15;;;;;;;;;;;7.30;99.90;;;;;;5037351;28;1085;-74
2023/01/09 05:18:44;;;;;;;;;;;7.30;99.90;;;;;;5040408;28;998;-74
2023/01/09 05:21:12;;;;;;;;;;;7.30;99.90;;;;;;5044937;28;1063;-73
2023/01/09 05:23:39;;;;;;;;;;;7.30;99.90;;;;;;5043442;28;1268;-75
2023/01/09 05:26:07;;;;;;;;;;;7.40;99.90;;;;;;5037930;28;1048;-76
2023/01/09 05:28:34;;;;;;;;;;;7.30;99.90;;;;;;5044465;28;998;-76
2023/01/09 05:31:02;;;;;;;;;;;7.30;99.90;;;;;;5036701;28;1918;-76
2023/01/09 05:33:32;;;;;;;;;;;7.30;99.90;;;;;;5041495;28;2314;-74
2023/01/09 05:36:01;;;;;;;;;;;7.30;99.90;;;;;;5046646;28;1000;-77
2023/01/09 05:38:28;;;;;;;;;;;7.30;99.90;;;;;;5055547;28;1009;-75
2023/01/09 05:40:56;;;;;;;;;;;7.60;99.90;;;;;;5040498;28;1081;-77
2023/01/09 05:43:23;;;;;;;;;;;7.40;99.90;;;;;;5038429;28;1112;-77
2023/01/09 05:45:53;;;;;;;;;;;7.40;99.90;;;;;;5046031;28;1097;-75
2023/01/09 05:48:21;;;;;;;;;;;7.40;99.90;;;;;;5044574;28;1263;-77
2023/01/09 05:50:49;;;;;;;;;;;7.40;99.90;;;;;;5041513;28;1973;-78
2023/01/09 05:53:18;;;;;;;;;;;7.30;99.90;;;;;;5044865;28;1906;-82
2023/01/09 05:55:46;;;;;;;;;;;7.40;99.90;;;;;;5056790;28;1397;-78
2023/01/09 05:58:14;;;;;;;;;;;7.50;99.90;;;;;;5040654;28;2114;-81
2023/01/09 06:00:51;;;;;;;;;;;7.60;99.90;;;;;;5052737;28;1112;-80
2023/01/09 06:03:19;;;;;;;;;;;7.60;99.90;;;;;;5058283;28;1044;-79
2023/01/09 06:05:47;;;;;;;;;;;7.60;99.90;;;;;;5064344;28;1279;-83
2023/01/09 06:08:15;;;;;;;;;;;7.70;99.90;;;;;;5056219;28;1745;-80
2023/01/09 06:10:45;;;;;;;;;;;7.80;99.90;;;;;;5051924;28;1147;-82
2023/01/09 06:13:13;;;;;;;;;;;7.70;99.90;;;;;;5054866;28;1914;-80
2023/01/09 06:15:41;;;;;;;;;;;7.70;99.90;;;;;;5051020;28;1546;-74
2023/01/09 06:18:09;;;;;;;;;;;7.60;99.90;;;;;;5048030;28;1270;-77
2023/01/09 06:20:36;;;;;;;;;;;7.70;99.90;;;;;;5046173;28;1521;-80
2023/01/09 06:23:04;;;;;;;;;;;7.60;99.90;;;;;;5049245;28;1370;-80
2023/01/09 06:25:31;;;;;;;;;;;7.70;99.90;;;;;;5043384;28;1310;-78
2023/01/09 06:28:00;;;;;;;;;;;7.70;99.90;;;;;;5045604;28;1055;-78
2023/01/09 06:30:28;;;;;;;;;;;7.70;99.90;;;;;;5041054;28;1128;-78
2023/01/09 06:32:55;;;;;;;;;;;7.70;99.90;;;;;;5046624;28;1918;-80
2023/01/09 06:35:23;;;;;;;;;;;7.70;99.90;;;;;;5051024;28;1382;-79
2023/01/09 06:37:51;;;;;;;;;;;7.80;99.90;;;;;;5048559;28;1520;-79
2023/01/09 06:40:19;;;;;;;;;;;7.70;99.90;;;;;;5044049;28;1112;-80
2023/01/09 06:42:48;;;;;;;;;;;7.70;99.90;;;;;;5048028;28;1732;-80
2023/01/09 06:45:17;;;;;;;;;;;7.80;99.90;;;;;;5045005;28;1717;-76
2023/01/09 06:47:44;;;;;;;;;;;7.80;99.90;;;;;;5046185;28;1592;-77
2023/01/09 06:50:12;;;;;;;;;;;7.80;99.90;;;;;;5041267;28;1100;-75
2023/01/09 06:52:40;;;;;;;;;;;7.80;99.90;;;;;;5044717;28;1977;-77
2023/01/09 06:55:08;;;;;;;;;;;7.80;99.90;;;;;;5050282;28;1287;-77
2023/01/09 06:57:36;;;;;;;;;;;7.80;99.90;;;;;;5044146;28;1808;-77
2023/01/09 07:00:04;;;;;;;;;;;7.70;99.90;;;;;;5047475;28;976;-76
2023/01/09 07:02:33;;;;;;;;;;;7.60;99.90;;;;;;5045366;28;1151;-76
2023/01/09 07:05:01;;;;;;;;;;;7.70;99.90;;;;;;5045322;28;1294;-76
2023/01/09 07:07:30;;;;;;;;;;;7.70;99.90;;;;;;5039446;28;1103;-77
2023/01/09 07:09:57;;;;;;;;;;;7.80;99.90;;;;;;5045861;28;2031;-76
2023/01/09 07:12:25;;;;;;;;;;;7.60;99.90;;;;;;5042929;28;1989;-75
2023/01/09 07:14:53;;;;;;;;;;;7.70;99.90;;;;;;5045069;28;1386;-76
2023/01/09 07:17:24;;;;;;;;;;;7.80;99.90;;;;;;5046736;28;1116;-75
2023/01/09 07:19:53;;;;;;;;;;;7.80;99.90;;;;;;5043329;28;2016;-76
2023/01/09 07:22:21;;;;;;;;;;;7.80;99.90;;;;;;5048278;28;1706;-77
2023/01/09 07:24:49;;;;;;;;;;;8.10;99.90;;;;;;5046661;28;1640;-76
2023/01/09 07:27:17;;;;;;;;;;;7.80;99.90;;;;;;5047290;28;1611;-77
2023/01/09 07:29:45;;;;;;;;;;;7.70;99.90;;;;;;5048703;28;1017;-78
2023/01/09 07:32:15;;;;;;;;;;;7.80;99.90;;;;;;5043630;28;1953;-77
2023/01/09 07:34:43;;;;;;;;;;;7.80;99.90;;;;;;5045510;28;1595;-75
2023/01/09 07:37:13;;;;;;;;;;;7.70;99.90;;;;;;5048099;28;1063;-75
2023/01/09 07:39:41;;;;;;;;;;;7.70;99.90;;;;;;5047564;28;993;-77
2023/01/09 07:42:09;;;;;;;;;;;7.70;99.90;;;;;;5046042;28;1006;-76
2023/01/09 07:44:37;;;;;;;;;;;7.70;99.90;;;;;;5042924;28;1290;-74
2023/01/09 07:47:05;;;;;;;;;;;7.60;99.90;;;;;;5044531;28;1203;-75
2023/01/09 07:49:33;;;;;;;;;;;7.60;99.90;;;;;;5055577;28;1528;-74
2023/01/09 07:52:01;;;;;;;;;;;7.50;99.90;;;;;;5056609;28;1985;-75
2023/01/09 07:54:30;;;;;;;;;;;7.60;99.90;;;;;;5047530;28;1285;-74
2023/01/09 07:57:00;;;;;;;;;;;7.60;99.90;;;;;;5047426;28;1120;-75
2023/01/09 07:59:28;;;;;;;;;;;7.60;99.90;;;;;;5043214;28;1013;-75
2023/01/09 08:01:56;;;;;;;;;;;7.60;99.90;;;;;;5044993;28;1706;-75
2023/01/09 08:04:24;;;;;;;;;;;7.70;99.90;;;;;;5046829;28;1369;-75
2023/01/09 08:06:52;;;;;;;;;;;7.70;99.90;;;;;;5040605;28;1088;-74
2023/01/09 08:09:19;;;;;;;;;;;7.60;99.90;;;;;;5040178;28;2216;-74
2023/01/09 08:11:57;;;;;;;;;;;7.60;99.90;;;;;;5044817;28;1175;-76
2023/01/09 08:14:25;;;;;;;;;;;7.60;99.90;;;;;;5042066;28;1889;-75
2023/01/09 08:16:52;;;;;;;;;;;7.60;99.90;;;;;;5035082;28;1266;-76
2023/01/09 08:19:20;;;;;;;;;;;7.60;99.90;;;;;;5039081;28;2048;-75
2023/01/09 08:21:48;;;;;;;;;;;7.60;99.90;;;;;;5045992;28;1171;-76
2023/01/09 08:24:16;;;;;;;;;;;7.60;99.90;;;;;;5037733;28;1885;-75
2023/01/09 08:26:44;;;;;;;;;;;7.50;99.90;;;;;;5038098;28;2140;-76
2023/01/09 08:29:15;;;;;;;;;;;7.40;99.90;;;;;;5047871;28;1231;-76
2023/01/09 08:31:43;;;;;;;;;;;7.40;99.90;;;;;;5045057;28;1115;-75
2023/01/09 08:34:19;;;;;;;;;;;7.40;99.90;;;;;;5045624;28;1918;-76
2023/01/09 08:36:47;;;;;;;;;;;7.30;99.90;;;;;;5041266;28;1139;-74
2023/01/09 08:39:14;;;;;;;;;;;7.20;99.90;;;;;;5043613;28;1361;-75
2023/01/09 08:47:18;;;;;;;;;;;7.50;99.90;;;;;;5039909;28;2311;-75
2023/01/09 08:49:47;;;;;;;;;;;7.40;99.90;;;;;;5042631;28;2095;-75
2023/01/09 08:52:14;;;;;;;;;;;7.30;99.90;;;;;;5038635;28;2142;-75
2023/01/09 08:54:43;;;;;;;;;;;7.40;99.90;;;;;;5035976;28;1918;-77
2023/01/09 08:57:11;;;;;;;;;;;7.30;99.90;;;;;;5041964;28;2088;-75
2023/01/09 08:59:40;;;;;;;;;;;7.30;99.90;;;;;;5045300;28;1049;-75
2023/01/09 09:02:08;;;;;;;;;;;7.20;99.90;;;;;;5043054;28;2274;-75
2023/01/09 09:04:38;;;;;;;;;;;7.40;99.90;;;;;;5039505;28;2174;-77
2023/01/09 09:07:05;;;;;;;;;;;7.20;99.90;;;;;;5041553;28;1025;-75
2023/01/09 09:09:33;;;;;;;;;;;7.30;99.90;;;;;;5045228;28;1105;-76
2023/01/09 09:12:01;;;;;;;;;;;7.10;99.90;;;;;;5048375;28;1269;-77
2023/01/09 09:17:15;;;;;;;;;;;7.10;99.90;;;;;;5045002;28;1260;-76
2023/01/09 09:19:43;;;;;;;;;;;7.20;99.90;;;;;;5040848;28;2107;-76
2023/01/09 09:22:10;;;;;;;;;;;7.10;99.90;;;;;;5041129;28;1089;-77
2023/01/09 09:24:38;;;;;;;;;;;7.10;99.90;;;;;;5045067;28;1381;-76
2023/01/09 09:27:05;;;;;;;;;;;7.10;99.90;;;;;;5041089;28;1643;-76
2023/01/09 09:29:33;;;;;;;;;;;7.10;99.90;;;;;;5043764;28;1330;-76
2023/01/09 09:32:01;;;;;;;;;;;7.20;99.90;;;;;;5036242;28;2126;-76
2023/01/09 09:34:30;;;;;;;;;;;7.20;99.90;;;;;;5046553;28;1902;-74
2023/01/09 09:36:57;;;;;;;;;;;7.10;99.90;;;;;;5041319;28;1094;-73
2023/01/09 09:39:25;;;;;;;;;;;7.20;99.90;;;;;;5033810;28;1055;-73
2023/01/09 09:45:10;;;;;;;;;;;7.40;99.90;;;;;;5010139;28;1354;-73
2023/01/09 09:47:45;;;;;;;;;;;7.50;99.90;;;;;;5043949;28;1072;-73
2023/01/09 09:50:19;;;;;;;;;;;7.40;99.90;;;;;;5041950;28;1135;-73
2023/01/09 09:52:51;;;;;;;;;;;7.40;99.90;;;;;;5042850;28;1117;-73
2023/01/09 09:55:21;;;;;;;;;;;7.40;99.90;;;;;;5042680;28;1971;-73
2023/01/09 09:57:50;;;;;;;;;;;7.50;99.90;;;;;;5043382;28;1076;-75
2023/01/09 10:00:19;;;;;;;;;;;7.50;99.90;;;;;;5040931;28;1096;-72
2023/01/09 10:02:50;;;;;;;;;;;7.60;99.90;;;;;;5053708;28;1053;-72
2023/01/09 10:05:24;;;;;;;;;;;7.60;99.90;;;;;;5045975;28;1351;-73
2023/01/09 10:08:04;;;;;;;;;;;7.60;99.90;;;;;;5041850;28;760;-73
2023/01/09 10:10:44;;;;;;;;;;;7.70;99.90;;;;;;5039180;28;1139;-72
2023/01/09 10:16:04;;;;;;;;;;;7.60;99.90;;;;;;5045587;28;1556;-73
2023/01/09 10:18:39;;;;;;;;;;;7.50;99.90;;;;;;5045780;28;1116;-73
2023/01/09 10:21:13;;;;;;;;;;;7.50;99.90;;;;;;5050300;28;1010;-72
2023/01/09 10:23:48;;;;;;;;;;;7.50;99.90;;;;;;5053440;28;1358;-72
2023/01/09 10:26:20;;;;;;;;;;;7.60;99.90;;;;;;5047618;28;1104;-72
2023/01/09 10:28:55;;;;;;;;;;;7.50;99.90;;;;;;5042595;28;1442;-73
2023/01/09 10:31:27;;;;;;;;;;;7.50;99.90;;;;;;5044139;28;1830;-72
2023/01/09 10:34:03;;;;;;;;;;;7.50;99.90;;;;;;5041944;28;1918;-72
2023/01/09 10:36:47;;;;;;;;;;;7.40;99.90;;;;;;5038723;28;1706;-73
2023/01/09 10:39:18;;;;;;;;;;;7.40;99.90;;;;;;5036264;28;1674;-73
2023/01/09 10:41:48;;;;;;;;;;;7.20;99.90;;;;;;5044726;28;1350;-72
2023/01/09 10:44:20;;;;;;;;;;;7.40;99.90;;;;;;5048809;28;1402;-73
2023/01/09 10:46:49;;;;;;;;;;;7.40;99.90;;;;;;5051134;28;1524;-72
2023/01/09 10:49:17;;;;;;;;;;;7.80;99.90;;;;;;5047080;28;1163;-77
2023/01/09 10:51:48;;;;;;;;;;;7.50;99.90;;;;;;5048229;28;1166;-76
2023/01/09 10:54:17;;;;;;;;;;;7.50;99.90;;;;;;5045518;28;1907;-75
2023/01/09 10:56:50;;;;;;;;;;;7.70;99.90;;;;;;5040222;28;1769;-76
2023/01/09 10:59:18;;;;;;;;;;;7.70;99.90;;;;;;5047629;28;1726;-77
2023/01/09 11:01:51;;;;;;;;;;;7.90;99.90;;;;;;5044253;28;1655;-74
2023/01/09 11:04:20;;;;;;;;;;;7.70;99.90;;;;;;5045116;28;1570;-76
2023/01/09 11:06:50;;;;;;;;;;;7.70;99.90;;;;;;5049226;28;1740;-75
2023/01/09 11:09:18;;;;;;;;;;;7.60;99.90;;;;;;5052318;28;997;-75
2023/01/09 11:11:46;;;;;;;;;;;7.70;99.90;;;;;;5040296;28;1521;-75
2023/01/09 11:14:14;;;;;;;;;;;7.60;99.90;;;;;;5040658;28;1979;-74
2023/01/09 11:16:52;;;;;;;;;;;7.60;99.90;;;;;;5045210;28;1168;-73
2023/01/09 11:19:21;;;;;;;;;;;7.70;99.90;;;;;;5045253;28;1036;-74
2023/01/09 11:21:49;;;;;;;;;;;7.80;99.90;;;;;;5041988;28;1072;-73
2023/01/09 11:24:28;;;;;;;;;;;7.80;99.90;;;;;;5033915;28;1710;-76
2023/01/09 11:27:10;;;;;;;;;;;7.90;99.90;;;;;;5043548;28;1055;-74
2023/01/09 11:29:44;;;;;;;;;;;8.00;99.90;;;;;;5044360;28;1350;-74
2023/01/09 11:32:20;;;;;;;;;;;8.00;99.90;;;;;;5045739;28;1080;-74
2023/01/09 11:34:48;;;;;;;;;;;8.10;99.90;;;;;;5041314;28;1910;-75
2023/01/09 11:37:22;;;;;;;;;;;8.20;99.90;;;;;;5048151;28;1212;-75
2023/01/09 11:39:50;;;;;;;;;;;8.20;99.90;;;;;;5043685;28;1029;-74
2023/01/09 11:42:49;;;;;;;;;;;8.10;99.90;;;;;;5044297;28;1069;-75
2023/01/09 11:45:13;;;;;;;;;;;8.30;99.90;;;;;;5044559;28;1306;-74
2023/01/09 11:47:41;;;;;;;;;;;8.10;99.90;;;;;;5042933;28;1548;-76
2023/01/09 11:50:16;;;;;;;;;;;8.00;99.90;;;;;;5043421;28;1132;-75
2023/01/09 11:52:45;;;;;;;;;;;8.00;99.90;;;;;;5047715;28;1073;-75
2023/01/09 11:55:15;;;;;;;;;;;8.00;99.90;;;;;;5042991;28;1988;-76
2023/01/09 11:57:43;;;;;;;;;;;8.10;99.90;;;;;;5045791;28;1033;-74
2023/01/09 12:00:21;;;;;;;;;;;8.30;99.90;;;;;;5048063;28;1056;-75
2023/01/09 12:02:59;;;;;;;;;;;8.20;99.90;;;;;;5044827;28;1085;-75
2023/01/09 12:05:31;;;;;;;;;;;8.30;99.90;;;;;;5045316;28;1701;-76
2023/01/09 12:08:06;;;;;;;;;;;8.30;99.90;;;;;;5047854;28;1081;-76
2023/01/09 12:10:41;;;;;;;;;;;8.30;99.90;;;;;;5044539;28;1009;-75
2023/01/09 12:13:13;;;;;;;;;;;8.10;99.90;;;;;;5045009;28;1178;-74
2023/01/09 12:15:44;;;;;;;;;;;8.10;99.90;;;;;;5063562;28;1973;-75
2023/01/09 12:18:23;;;;;;;;;;;8.20;99.90;;;;;;5046985;28;1017;-75
2023/01/09 12:20:58;;;;;;;;;;;8.20;99.90;;;;;;5049179;28;1611;-75
2023/01/09 12:23:33;;;;;;;;;;;8.20;99.90;;;;;;5043468;28;1112;-75
2023/01/09 12:26:07;;;;;;;;;;;8.10;99.90;;;;;;5042677;28;1088;-75
2023/01/09 12:28:48;;;;;;;;;;;8.30;99.90;;;;;;5044223;28;1070;-75
2023/01/09 12:31:22;;;;;;;;;;;8.30;99.90;;;;;;5048108;28;1029;-74
2023/01/09 12:33:53;;;;;;;;;;;8.40;99.90;;;;;;5046996;28;1317;-74
2023/01/09 12:36:31;;;;;;;;;;;8.50;99.90;;;;;;5037360;28;2024;-73
2023/01/09 12:39:04;;;;;;;;;;;8.40;99.90;;;;;;5042219;28;1603;-73
2023/01/09 12:41:46;;;;;;;;;;;8.40;99.90;;;;;;5043085;28;1742;-73
2023/01/09 12:44:29;;;;;;;;;;;8.50;99.90;;;;;;5040281;28;1675;-72
2023/01/09 12:47:08;;;;;;;;;;;8.40;99.90;;;;;;5040778;28;1695;-72
2023/01/09 12:49:37;;;;;;;;;;;8.50;99.90;;;;;;5042643;28;1451;-73
2023/01/09 12:52:07;;;;;;;;;;;8.50;99.90;;;;;;5045333;28;1101;-73
2023/01/09 12:54:40;;;;;;;;;;;8.50;99.90;;;;;;5044362;28;1303;-72
2023/01/09 12:57:13;;;;;;;;;;;8.50;99.90;;;;;;5042891;28;1754;-73
2023/01/09 12:59:42;;;;;;;;;;;8.50;99.90;;;;;;5043555;28;1239;-72
2023/01/09 13:02:16;;;;;;;;;;;8.40;99.90;;;;;;5043625;28;994;-72
2023/01/09 13:04:45;;;;;;;;;;;8.40;99.90;;;;;;5044123;28;1307;-72
2023/01/09 13:07:17;;;;;;;;;;;8.50;99.90;;;;;;5044751;28;1002;-73
2023/01/09 13:09:49;;;;;;;;;;;8.50;99.90;;;;;;5043351;28;990;-73
2023/01/09 13:12:20;;;;;;;;;;;8.50;99.90;;;;;;5043177;28;1302;-73
2023/01/09 13:14:50;;;;;;;;;;;8.60;99.90;;;;;;5043284;28;1304;-73
2023/01/09 13:17:20;;;;;;;;;;;8.50;99.90;;;;;;5038776;28;1017;-72
2023/01/09 13:19:48;;;;;;;;;;;8.50;99.90;;;;;;5039381;28;1734;-72
2023/01/09 13:22:16;;;;;;;;;;;8.50;99.90;;;;;;5034514;28;1699;-73
2023/01/09 13:25:17;;;;;;;;;;;8.60;99.90;;;;;;5035349;28;1624;-73
2023/01/09 13:27:48;;;;;;;;;;;8.80;99.90;;;;;;5037139;28;1129;-72
2023/01/09 13:30:19;;;;;;;;;;;9.00;99.90;;;;;;5049313;28;1017;-73
2023/01/09 13:32:54;;;;;;;;;;;8.90;99.90;;;;;;5036451;28;1829;-72
2023/01/09 13:35:22;;;;;;;;;;;8.80;99.90;;;;;;5033370;28;1977;-71
2023/01/09 13:37:56;;;;;;;;;;;8.70;99.90;;;;;;5041955;28;1619;-72
2023/01/09 13:40:28;;;;;;;;;;;8.70;99.90;;;;;;5041584;28;1734;-72
2023/01/09 13:42:57;;;;;;;;;;;8.70;99.90;;;;;;5039617;28;1667;-71
2023/01/09 13:45:33;;;;;;;;;;;8.60;99.90;;;;;;5042782;28;1351;-74
2023/01/09 13:48:19;;;;;;;;;;;8.70;99.90;;;;;;5042171;28;985;-72
2023/01/09 13:50:49;;;;;;;;;;;8.50;99.90;;;;;;5051451;28;1504;-75
2023/01/09 13:53:36;;;;;;;;;;;8.60;99.90;;;;;;5047708;28;1014;-74
2023/01/09 13:56:06;;;;;;;;;;;8.60;99.90;;;;;;5047635;28;1902;-73
2023/01/09 13:58:52;;;;;;;;;;;8.50;99.90;;;;;;5047481;28;1750;-74
2023/01/09 14:01:42;;;;;;;;;;;8.50;99.90;;;;;;5044889;28;1196;-74
2023/01/09 14:04:28;;;;;;;;;;;8.50;99.90;;;;;;5050835;28;1429;-74
2023/01/09 14:07:14;;;;;;;;;;;8.50;99.90;;;;;;5044953;28;1711;-75
2023/01/09 14:09:45;;;;;;;;;;;8.60;99.90;;;;;;5045575;28;1710;-75
2023/01/09 14:12:16;;;;;;;;;;;8.50;99.90;;;;;;5047730;28;1092;-73
2023/01/09 14:14:44;;;;;;;;;;;8.50;99.90;;;;;;5046218;28;1686;-75
2023/01/09 14:17:16;;;;;;;;;;;8.50;99.90;;;;;;5045184;28;1906;-74
2023/01/09 14:19:44;;;;;;;;;;;8.60;99.90;;;;;;5047411;28;1540;-75
2023/01/09 14:22:23;;;;;;;;;;;8.40;99.90;;;;;;5047844;28;1006;-74
2023/01/09 14:24:52;;;;;;;;;;;8.50;99.90;;;;;;5057122;28;1346;-74
2023/01/09 14:27:38;;;;;;;;;;;8.40;99.90;;;;;;5069565;28;1164;-75
2023/01/09 14:30:27;;;;;;;;;;;8.50;99.90;;;;;;5052712;28;1042;-75
2023/01/09 14:32:56;;;;;;;;;;;8.50;99.90;;;;;;5047973;28;1690;-74
2023/01/09 14:35:26;;;;;;;;;;;8.50;99.90;;;;;;5051513;28;1129;-75
2023/01/09 14:38:01;;;;;;;;;;;8.40;99.90;;;;;;5045251;28;1910;-75
2023/01/09 14:40:29;;;;;;;;;;;8.40;99.90;;;;;;5041960;28;974;-74
2023/01/09 14:42:59;;;;;;;;;;;8.40;99.90;;;;;;5046620;28;1245;-75
2023/01/09 14:45:30;;;;;;;;;;;8.40;99.90;;;;;;5047190;28;1240;-75
2023/01/09 14:48:04;;;;;;;;;;;8.30;99.90;;;;;;5043686;28;1539;-74
2023/01/09 14:50:33;;;;;;;;;;;8.10;99.90;;;;;;5047058;28;1056;-73
2023/01/09 14:53:04;;;;;;;;;;;8.00;99.90;;;;;;5049718;28;961;-75
2023/01/09 14:55:35;;;;;;;;;;;8.10;99.90;;;;;;5048594;28;1506;-75
2023/01/09 14:58:17;;;;;;;;;;;8.10;99.90;;;;;;5050144;28;1910;-75
2023/01/09 15:00:51;;;;;;;;;;;8.20;99.90;;;;;;5045126;28;1291;-74
2023/01/09 15:03:20;;;;;;;;;;;8.20;99.90;;;;;;5042500;28;1089;-76
2023/01/09 15:05:50;;;;;;;;;;;8.10;99.90;;;;;;5043185;28;1171;-75
2023/01/09 15:08:20;;;;;;;;;;;8.20;99.90;;;;;;5043742;28;1178;-75
2023/01/09 15:10:49;;;;;;;;;;;8.10;99.90;;;;;;5046309;28;1285;-74
2023/01/09 15:13:18;;;;;;;;;;;8.10;99.90;;;;;;5042176;28;1391;-75
2023/01/09 15:15:47;;;;;;;;;;;8.10;99.90;;;;;;5039922;28;1296;-75
2023/01/09 15:18:20;;;;;;;;;;;8.10;99.90;;;;;;5051387;28;1969;-75
2023/01/09 15:20:51;;;;;;;;;;;8.10;99.90;;;;;;5041691;28;1497;-75